Time;durP1;ratioP1;P1;durP2;ratioP2;P2;SDS_P1;SDS_P2;PMS_P1;PMS_P2;Temp;Humidity;BMP_temperature;BMP_pressure;BME280_temperature;BME280_humidity;BME280_pressure;Samples;Min_cycle;Max_cycle;Signal;HPM_P1;HPM_P2
2022/11/11 00:02:16;;;;;;;5.22;1.90;;;25.30;99.90;;;;;;5028890;28;20553;-78
2022/11/11 00:04:47;;;;;;;4.85;2.00;;;25.10;99.90;;;;;;5035958;28;20282;-78
2022/11/11 00:07:18;;;;;;;6.75;1.90;;;25.10;99.90;;;;;;5030755;28;20244;-78
2022/11/11 00:09:48;;;;;;;5.50;2.38;;;25.10;99.90;;;;;;5035944;28;20201;-78
2022/11/11 00:12:21;;;;;;;4.90;1.70;;;25.10;99.90;;;;;;5030015;28;20273;-78
2022/11/11 00:14:52;;;;;;;2.65;1.63;;;25.20;99.90;;;;;;5029283;28;20566;-77
2022/11/11 00:25:45;;;;;;;3.60;1.42;;;25.90;99.90;;;;;;5023662;28;20712;-78
2022/11/11 00:28:20;;;;;;;3.28;1.30;;;25.80;99.90;;;;;;5024114;28;20242;-79
2022/11/11 00:30:51;;;;;;;3.45;1.38;;;25.70;99.90;;;;;;5033070;28;20194;-78
2022/11/11 00:33:22;;;;;;;3.63;1.73;;;25.50;99.90;;;;;;5035050;28;20209;-78
2022/11/11 00:35:54;;;;;;;4.78;1.20;;;25.20;99.90;;;;;;5035493;28;20195;-79
2022/11/11 00:41:12;;;;;;;6.90;1.05;;;24.90;99.90;;;;;;5027232;28;20203;-77
2022/11/11 00:43:45;;;;;;;3.42;1.10;;;25.00;99.90;;;;;;5034804;28;20190;-77
2022/11/11 00:51:51;;;;;;;2.75;0.70;;;24.80;99.90;;;;;;5026725;28;20233;-77
2022/11/11 00:54:22;;;;;;;4.60;1.00;;;25.10;99.90;;;;;;5031966;28;20190;-80
2022/11/11 00:56:53;;;;;;;4.95;1.00;;;25.10;99.90;;;;;;5028952;28;20225;-79
2022/11/11 00:59:25;;;;;;;3.60;1.10;;;25.00;99.90;;;;;;5035083;28;20194;-78
2022/11/11 01:01:56;;;;;;;1.42;0.70;;;24.90;99.90;;;;;;5032039;28;20190;-76
2022/11/11 01:04:27;;;;;;;5.00;0.73;;;25.20;99.90;;;;;;5033060;28;20396;-78
2022/11/11 01:06:58;;;;;;;2.60;1.05;;;25.40;99.90;;;;;;5029023;28;20191;-76
2022/11/11 01:09:28;;;;;;;3.13;1.00;;;25.40;99.90;;;;;;5026607;28;20187;-76
2022/11/11 01:11:59;;;;;;;2.28;0.70;;;25.10;99.90;;;;;;5033805;28;20183;-77
2022/11/11 01:14:33;;;;;;;5.53;0.75;;;24.80;99.90;;;;;;5034770;28;20186;-76
2022/11/11 01:17:05;;;;;;;2.80;0.80;;;24.80;99.90;;;;;;5034887;28;20191;-77
2022/11/11 01:19:35;;;;;;;5.35;1.00;;;24.80;99.90;;;;;;5034377;28;20191;-77
2022/11/11 01:22:06;;;;;;;2.03;0.90;;;24.60;99.90;;;;;;5029214;28;20245;-78
2022/11/11 01:24:38;;;;;;;4.72;1.10;;;24.60;99.90;;;;;;5034244;28;20186;-78
2022/11/11 01:27:09;;;;;;;1.67;0.90;;;24.40;99.90;;;;;;5034637;28;20217;-78
2022/11/11 01:29:42;;;;;;;1.40;0.80;;;24.40;99.90;;;;;;5033728;28;20182;-76
2022/11/11 01:32:12;;;;;;;4.03;1.20;;;24.40;99.90;;;;;;5030323;28;20191;-77
2022/11/11 01:34:44;;;;;;;5.43;1.17;;;24.80;99.90;;;;;;5033537;28;20190;-78
2022/11/11 01:37:15;;;;;;;3.88;0.90;;;25.00;99.90;;;;;;5029123;28;20245;-78
2022/11/11 01:39:45;;;;;;;4.15;1.65;;;25.10;99.90;;;;;;5030193;28;20653;-77
2022/11/11 01:42:16;;;;;;;3.63;1.10;;;25.00;99.90;;;;;;5028517;28;20560;-77
2022/11/11 01:44:50;;;;;;;2.90;1.00;;;25.20;99.90;;;;;;5032565;28;20533;-76
2022/11/11 01:49:17;;;;;;;4.03;1.20;;;25.20;99.90;;;;;;5030494;28;20673;-76
2022/11/11 01:50:12;;;;;;;2.35;0.90;;;25.30;99.90;;;;;;5032779;28;20654;-76
2022/11/11 01:52:46;;;;;;;4.50;1.00;;;25.40;99.90;;;;;;5033598;28;20269;-75
2022/11/11 01:55:19;;;;;;;4.25;1.05;;;25.10;99.90;;;;;;5032902;28;20227;-76
2022/11/11 01:57:55;;;;;;;2.50;0.90;;;25.00;99.90;;;;;;5033143;28;20278;-77
2022/11/11 02:00:28;;;;;;;2.38;0.80;;;25.10;99.90;;;;;;5033148;28;20205;-76
2022/11/11 02:03:03;;;;;;;2.47;0.75;;;25.00;99.90;;;;;;5032069;28;20649;-76
2022/11/11 02:05:45;;;;;;;2.88;0.90;;;25.10;99.90;;;;;;5027646;28;20204;-76
2022/11/11 02:08:31;;;;;;;6.18;1.02;;;25.00;99.90;;;;;;5023757;28;20614;-80
2022/11/11 02:11:04;;;;;;;3.38;1.23;;;25.00;99.90;;;;;;5022967;28;20194;-78
2022/11/11 02:16:28;;;;;;;4.43;1.17;;;24.90;99.90;;;;;;5031677;28;20194;-75
2022/11/11 02:18:59;;;;;;;2.40;0.80;;;24.80;99.90;;;;;;5027693;28;20210;-77
2022/11/11 02:21:35;;;;;;;4.20;0.90;;;24.60;99.90;;;;;;5031492;28;20579;-76
2022/11/11 02:24:10;;;;;;;1.90;0.85;;;24.40;99.90;;;;;;5031926;28;20205;-77
2022/11/11 02:26:42;;;;;;;4.65;0.73;;;24.10;99.90;;;;;;5027443;28;20200;-78
2022/11/11 02:29:18;;;;;;;3.47;0.70;;;24.10;99.90;;;;;;5027839;28;20238;-79
2022/11/11 02:31:49;;;;;;;2.53;0.70;;;23.90;99.90;;;;;;5030834;28;20194;-78
2022/11/11 02:34:19;;;;;;;3.42;0.80;;;23.60;99.90;;;;;;5031440;28;20214;-76
2022/11/11 02:36:50;;;;;;;2.33;0.77;;;23.60;99.90;;;;;;5030289;28;20234;-77
2022/11/11 02:39:23;;;;;;;3.40;0.70;;;23.70;99.90;;;;;;5030745;28;21778;-77
2022/11/11 02:42:03;;;;;;;3.50;0.75;;;23.70;99.90;;;;;;5026655;28;20725;-76
2022/11/11 02:44:34;;;;;;;5.07;0.95;;;23.60;99.90;;;;;;5019375;28;20194;-76
2022/11/11 02:47:05;;;;;;;2.33;0.90;;;23.80;99.90;;;;;;5029667;28;20195;-78
2022/11/11 02:49:36;;;;;;;5.18;0.85;;;23.70;99.90;;;;;;5030031;28;20220;-76
2022/11/11 02:52:07;;;;;;;2.28;0.88;;;23.80;99.90;;;;;;5032060;28;20205;-78
2022/11/11 02:54:41;;;;;;;1.65;0.82;;;24.00;99.90;;;;;;5029676;28;20648;-78
2022/11/11 02:57:12;;;;;;;4.85;1.00;;;24.10;99.90;;;;;;5032110;28;20201;-75
2022/11/11 02:59:43;;;;;;;2.03;1.00;;;24.10;99.90;;;;;;5030341;28;20204;-79
2022/11/11 03:02:14;;;;;;;3.22;0.73;;;24.20;99.90;;;;;;5031840;28;20195;-78
2022/11/11 03:04:45;;;;;;;3.10;1.00;;;24.20;99.90;;;;;;5025384;28;20200;-76
2022/11/11 03:07:16;;;;;;;4.95;0.90;;;24.10;99.90;;;;;;5025287;28;20198;-76
2022/11/11 03:09:49;;;;;;;4.28;0.90;;;24.10;99.90;;;;;;5028996;28;20221;-78
2022/11/11 03:12:20;;;;;;;3.35;0.90;;;24.00;99.90;;;;;;5027242;28;20201;-77
2022/11/11 03:14:50;;;;;;;2.45;0.90;;;24.10;99.90;;;;;;5028121;28;20558;-76
2022/11/11 03:23:06;;;;;;;3.22;0.90;;;24.70;99.90;;;;;;5025277;28;20198;-76
2022/11/11 03:25:39;;;;;;;2.88;0.70;;;24.80;99.90;;;;;;5027600;28;20229;-77
2022/11/11 03:28:11;;;;;;;2.58;0.70;;;24.50;99.90;;;;;;5029151;28;20311;-78
2022/11/11 03:30:43;;;;;;;4.10;0.73;;;24.50;99.90;;;;;;5025499;28;20201;-76
2022/11/11 03:33:14;;;;;;;2.85;0.80;;;24.60;99.90;;;;;;5028206;28;20665;-76
2022/11/11 03:35:45;;;;;;;2.95;0.80;;;24.70;99.90;;;;;;5030440;28;20199;-78
2022/11/11 03:38:23;;;;;;;1.38;0.70;;;24.60;99.90;;;;;;5031337;28;20249;-77
2022/11/11 03:40:57;;;;;;;3.67;0.90;;;24.70;99.90;;;;;;5033522;28;20336;-76
2022/11/11 03:43:29;;;;;;;2.88;0.73;;;24.70;99.90;;;;;;5028534;28;20190;-76
2022/11/11 03:46:01;;;;;;;2.70;0.60;;;24.70;99.90;;;;;;5032232;28;20204;-78
2022/11/11 03:48:33;;;;;;;2.72;1.00;;;24.80;99.90;;;;;;5028703;28;20256;-77
2022/11/11 03:51:05;;;;;;;1.42;0.60;;;24.70;99.90;;;;;;5029624;28;20666;-76
2022/11/11 03:53:36;;;;;;;1.58;0.82;;;24.60;99.90;;;;;;5029185;28;20198;-78
2022/11/11 03:56:09;;;;;;;3.75;0.75;;;24.60;99.90;;;;;;5031079;28;20198;-77
2022/11/11 03:58:39;;;;;;;2.45;0.77;;;24.60;99.90;;;;;;5033784;28;20248;-79
2022/11/11 04:10:21;;;;;;;2.65;0.70;;;24.60;99.90;;;;;;5027560;28;20205;-77
2022/11/11 04:12:24;;;;;;;2.65;0.85;;;24.80;99.90;;;;;;5031272;28;20206;-77
2022/11/11 04:17:42;;;;;;;2.17;0.65;;;24.80;99.90;;;;;;5034792;28;20237;-76
2022/11/11 04:23:00;;;;;;;2.00;0.70;;;24.50;99.90;;;;;;5032316;28;20664;-77
2022/11/11 04:31:07;;;;;;;5.93;0.80;;;24.20;99.90;;;;;;5030844;28;20189;-77
2022/11/11 04:33:36;;;;;;;7.47;0.93;;;24.00;99.90;;;;;;5030499;28;20187;-78
2022/11/11 04:36:07;;;;;;;3.28;0.70;;;24.00;99.90;;;;;;5031302;28;20316;-75
2022/11/11 04:41:24;;;;;;;2.75;0.70;;;23.90;99.90;;;;;;5032717;28;20808;-75
2022/11/11 04:46:43;;;;;;;2.10;0.65;;;23.70;99.90;;;;;;5033291;28;20190;-75
2022/11/11 04:49:14;;;;;;;2.58;0.80;;;23.60;99.90;;;;;;5033333;28;20221;-79
2022/11/11 04:56:46;;;;;;;2.55;1.02;;;23.40;99.90;;;;;;5028713;28;20600;-76
2022/11/11 04:57:21;;;;;;;1.20;0.73;;;23.20;99.90;;;;;;5030618;28;20276;-79
2022/11/11 04:59:53;;;;;;;3.72;0.85;;;23.20;99.90;;;;;;5031597;28;20225;-76
2022/11/11 05:05:11;;;;;;;2.53;0.73;;;23.00;99.90;;;;;;5032651;28;20205;-76
2022/11/11 05:10:28;;;;;;;3.03;1.00;;;23.00;99.90;;;;;;5033775;28;20197;-78
2022/11/11 05:21:19;;;;;;;3.58;0.90;;;23.00;99.90;;;;;;5033581;28;20277;-76
2022/11/11 05:21:31;;;;;;;2.15;1.00;;;23.00;99.90;;;;;;5032086;28;20193;-77
2022/11/11 05:26:48;;;;;;;4.00;1.58;;;22.90;99.90;;;;;;5029568;28;20221;-76
2022/11/11 05:29:19;;;;;;;3.92;1.50;;;22.90;99.90;;;;;;5033452;28;20586;-77
2022/11/11 05:31:51;;;;;;;4.80;1.40;;;22.80;99.90;;;;;;5033119;28;20213;-78
2022/11/11 05:34:22;;;;;;;5.47;1.70;;;22.80;99.90;;;;;;5032855;28;20197;-77
2022/11/11 05:36:53;;;;;;;4.47;1.00;;;22.70;99.90;;;;;;5033058;28;20236;-76
2022/11/11 05:39:24;;;;;;;2.28;1.00;;;22.70;99.90;;;;;;5032502;28;20269;-76
2022/11/11 05:41:54;;;;;;;5.20;1.20;;;22.70;99.90;;;;;;5033105;28;20196;-77
2022/11/11 05:44:25;;;;;;;3.75;1.42;;;22.60;99.90;;;;;;5025973;28;20202;-77
2022/11/11 05:46:58;;;;;;;4.85;1.63;;;22.60;99.90;;;;;;5032057;28;20248;-78
2022/11/11 05:49:29;;;;;;;5.95;2.03;;;22.60;99.90;;;;;;5032418;28;20220;-78
2022/11/11 05:52:00;;;;;;;5.45;1.95;;;22.40;99.90;;;;;;5031916;28;20190;-78
2022/11/11 05:54:31;;;;;;;4.25;2.05;;;22.40;99.90;;;;;;5032288;28;20200;-77
2022/11/11 05:57:02;;;;;;;4.70;2.20;;;22.40;99.90;;;;;;5031225;28;20198;-78
2022/11/11 05:59:33;;;;;;;5.65;1.60;;;22.30;99.90;;;;;;5032265;28;20195;-79
2022/11/11 06:02:05;;;;;;;7.18;1.77;;;22.30;99.90;;;;;;5023195;28;20196;-79
2022/11/11 06:04:36;;;;;;;3.22;1.42;;;22.30;99.90;;;;;;5033357;28;20197;-80
2022/11/11 06:07:07;;;;;;;3.83;1.63;;;22.20;99.90;;;;;;5031133;28;20190;-77
2022/11/11 06:09:38;;;;;;;5.47;1.85;;;22.20;99.90;;;;;;5024189;28;20210;-80
2022/11/11 06:12:09;;;;;;;7.40;1.85;;;22.00;99.90;;;;;;5031332;28;20198;-78
2022/11/11 06:14:39;;;;;;;7.25;2.10;;;22.00;99.90;;;;;;5032519;28;20198;-80
2022/11/11 06:17:12;;;;;;;4.90;1.83;;;21.90;99.90;;;;;;5032381;28;20186;-80
2022/11/11 06:19:43;;;;;;;4.85;1.85;;;21.90;99.90;;;;;;5033025;28;20554;-81
2022/11/11 06:22:13;;;;;;;3.83;2.38;;;21.90;99.90;;;;;;5030757;28;20208;-81
2022/11/11 06:26:11;;;;;;;7.32;2.28;;;21.90;99.90;;;;;;5032120;28;20213;-78
2022/11/11 06:27:35;;;;;;;7.90;2.25;;;21.90;99.90;;;;;;5025484;28;20222;-79
2022/11/11 06:30:07;;;;;;;4.53;2.25;;;22.00;99.90;;;;;;5028806;28;20581;-78
2022/11/11 06:32:39;;;;;;;6.43;2.50;;;22.00;99.90;;;;;;5029760;28;20187;-79
2022/11/11 06:35:10;;;;;;;7.63;2.60;;;22.00;99.90;;;;;;5031495;28;20832;-78
2022/11/11 06:37:41;;;;;;;7.82;2.80;;;22.00;99.90;;;;;;5032277;28;20234;-78
2022/11/11 06:40:13;;;;;;;3.30;2.22;;;22.00;99.90;;;;;;5031911;28;20186;-79
2022/11/11 06:42:44;;;;;;;5.03;2.63;;;21.90;99.90;;;;;;5032585;28;20541;-80
2022/11/11 06:45:14;;;;;;;4.95;2.50;;;22.00;99.90;;;;;;5031632;28;20670;-78
2022/11/11 06:47:47;;;;;;;9.30;3.00;;;22.00;99.90;;;;;;5027660;28;20195;-77
2022/11/11 06:50:18;;;;;;;6.40;3.10;;;22.00;99.90;;;;;;5031990;28;20232;-79
2022/11/11 06:52:49;;;;;;;6.47;3.20;;;22.10;99.90;;;;;;5032619;28;20197;-79
2022/11/11 06:55:20;;;;;;;8.13;3.65;;;22.10;99.90;;;;;;5032770;28;20186;-78
2022/11/11 06:57:51;;;;;;;6.43;3.50;;;22.20;99.90;;;;;;5032049;28;20297;-79
2022/11/11 07:00:22;;;;;;;5.75;3.20;;;22.20;99.90;;;;;;5031905;28;20190;-77
2022/11/11 07:03:00;;;;;;;7.35;2.75;;;22.20;99.90;;;;;;5031850;28;20249;-77
2022/11/11 07:05:31;;;;;;;3.00;2.00;;;22.30;99.90;;;;;;5026118;28;20631;-78
2022/11/11 07:08:04;;;;;;;3.90;1.90;;;22.30;99.90;;;;;;5027988;28;20565;-77
2022/11/11 07:10:37;;;;;;;3.50;1.58;;;22.30;99.90;;;;;;5027114;28;20210;-78
2022/11/11 07:13:08;;;;;;;1.95;1.20;;;22.40;99.90;;;;;;5031108;28;20193;-78
2022/11/11 07:15:39;;;;;;;1.88;1.05;;;22.40;99.90;;;;;;5030081;28;20194;-79
2022/11/11 07:18:13;;;;;;;1.58;1.00;;;22.50;99.90;;;;;;5027890;28;20194;-78
2022/11/11 07:20:44;;;;;;;4.45;1.60;;;22.50;99.90;;;;;;5029833;28;20204;-79
2022/11/11 07:23:16;;;;;;;1.98;1.08;;;22.50;99.90;;;;;;5027778;28;20213;-79
2022/11/11 07:25:47;;;;;;;2.90;1.10;;;22.50;99.90;;;;;;5026802;28;20199;-76
2022/11/11 07:28:18;;;;;;;2.90;1.20;;;22.50;99.90;;;;;;5028749;28;20230;-79
2022/11/11 07:30:49;;;;;;;3.55;1.30;;;22.50;99.90;;;;;;5029801;28;20220;-76
2022/11/11 07:33:21;;;;;;;1.95;1.20;;;22.50;99.90;;;;;;5028472;28;20197;-79
2022/11/11 07:35:52;;;;;;;1.40;1.15;;;22.40;99.90;;;;;;5027939;28;20543;-80
2022/11/11 07:38:23;;;;;;;4.40;1.20;;;22.40;99.90;;;;;;5028142;28;20230;-81
2022/11/11 07:40:53;;;;;;;3.03;1.02;;;22.30;99.90;;;;;;5030529;28;20202;-78
2022/11/11 07:43:25;;;;;;;2.05;0.90;;;22.30;99.90;;;;;;5026093;28;20208;-78
2022/11/11 07:45:56;;;;;;;2.55;1.00;;;22.30;99.90;;;;;;5028895;28;20197;-77
2022/11/11 07:48:28;;;;;;;1.52;1.00;;;22.30;99.90;;;;;;5029429;28;20566;-80
2022/11/11 07:50:59;;;;;;;1.30;1.00;;;22.30;99.90;;;;;;5025975;28;20216;-83
2022/11/11 07:53:30;;;;;;;1.95;1.00;;;22.30;99.90;;;;;;5024224;28;20569;-79
2022/11/11 07:56:01;;;;;;;1.23;0.90;;;22.40;99.90;;;;;;5031458;28;20194;-78
2022/11/11 07:58:31;;;;;;;1.58;0.80;;;22.40;99.90;;;;;;5021827;28;20429;-76
2022/11/11 08:01:03;;;;;;;1.88;1.10;;;22.40;99.90;;;;;;5027722;28;20204;-78
2022/11/11 08:03:48;;;;;;;1.35;0.88;;;22.40;99.90;;;;;;5026391;28;20198;-77
2022/11/11 08:06:19;;;;;;;1.02;0.77;;;22.40;99.90;;;;;;5027332;28;20202;-78
2022/11/11 08:08:50;;;;;;;1.13;0.80;;;22.40;99.90;;;;;;5031264;28;20201;-77
2022/11/11 08:13:39;;;;;;;1.25;0.95;;;22.30;99.90;;;;;;5025774;28;20227;-77
2022/11/11 08:14:10;;;;;;;1.95;0.80;;;22.20;99.90;;;;;;5026141;28;20205;-78
2022/11/11 08:16:41;;;;;;;1.80;0.90;;;22.20;99.90;;;;;;5023407;28;21001;-78
2022/11/11 08:19:14;;;;;;;2.90;1.13;;;22.20;99.90;;;;;;5027719;28;20201;-78
2022/11/11 08:21:44;;;;;;;2.03;0.90;;;22.20;99.90;;;;;;5031194;28;20653;-78
2022/11/11 08:24:17;;;;;;;0.88;0.88;;;22.10;99.90;;;;;;5030800;28;20986;-78
2022/11/11 08:26:48;;;;;;;2.30;0.80;;;22.20;99.90;;;;;;5033016;28;20194;-83
2022/11/11 08:29:19;;;;;;;0.95;0.85;;;22.20;99.90;;;;;;5032281;28;20301;-82
2022/11/11 08:31:50;;;;;;;1.55;1.00;;;22.10;99.90;;;;;;5029870;28;20187;-81
2022/11/11 08:34:22;;;;;;;1.15;0.90;;;22.10;99.90;;;;;;5030888;28;20202;-84
2022/11/11 08:36:53;;;;;;;3.47;0.90;;;22.10;99.90;;;;;;5031795;28;20238;-81
2022/11/11 08:39:24;;;;;;;1.58;0.80;;;22.10;99.90;;;;;;5023656;28;20217;-82
2022/11/11 08:41:55;;;;;;;0.80;0.70;;;22.00;99.90;;;;;;5028483;28;20196;-81
2022/11/11 08:44:25;;;;;;;1.85;0.80;;;22.00;99.90;;;;;;5030682;28;20256;-80
2022/11/11 08:46:56;;;;;;;2.35;0.80;;;21.90;99.90;;;;;;5029872;28;20653;-81
2022/11/11 08:49:29;;;;;;;1.55;0.90;;;21.90;99.90;;;;;;5033690;28;20575;-82
2022/11/11 08:52:00;;;;;;;1.02;0.82;;;21.80;99.90;;;;;;5028417;28;20195;-83
2022/11/11 08:54:31;;;;;;;2.40;0.88;;;21.80;99.90;;;;;;5027863;28;20554;-82
2022/11/11 08:57:02;;;;;;;2.42;1.10;;;21.70;99.90;;;;;;5033025;28;20612;-84
2022/11/11 08:59:33;;;;;;;2.22;0.90;;;21.70;99.90;;;;;;5029144;28;20290;-79
2022/11/11 09:02:03;;;;;;;2.53;0.85;;;21.70;99.90;;;;;;5028165;28;20200;-83
2022/11/11 09:04:36;;;;;;;2.20;0.95;;;21.70;99.90;;;;;;5030373;28;20201;-82
2022/11/11 09:07:07;;;;;;;2.80;0.80;;;21.60;99.90;;;;;;5029385;28;20277;-82
2022/11/11 09:09:38;;;;;;;3.25;0.90;;;21.60;99.90;;;;;;5029035;28;20222;-83
2022/11/11 09:12:09;;;;;;;1.52;0.85;;;21.50;99.90;;;;;;5029409;28;20199;-82
2022/11/11 09:14:39;;;;;;;1.85;1.00;;;21.50;99.90;;;;;;5028619;28;20277;-82
2022/11/11 09:17:10;;;;;;;0.80;0.80;;;21.50;99.90;;;;;;5026394;28;20198;-82
2022/11/11 09:19:43;;;;;;;1.67;1.10;;;21.40;99.90;;;;;;5027311;28;20208;-83
2022/11/11 09:22:14;;;;;;;1.05;0.85;;;21.40;99.90;;;;;;5029981;28;21037;-83
2022/11/11 09:24:44;;;;;;;1.58;1.05;;;21.30;99.90;;;;;;5029705;28;20284;-81
2022/11/11 09:27:15;;;;;;;1.20;0.90;;;21.30;99.90;;;;;;5031139;28;20237;-82
2022/11/11 09:29:46;;;;;;;1.10;1.00;;;21.20;99.90;;;;;;5033463;28;20751;-77
2022/11/11 09:32:17;;;;;;;1.13;0.90;;;21.10;99.90;;;;;;5025097;28;20198;-77
2022/11/11 09:34:49;;;;;;;1.88;1.23;;;21.00;99.90;;;;;;5030943;28;20198;-77
2022/11/11 09:37:20;;;;;;;1.45;1.10;;;21.00;99.90;;;;;;5032565;28;20234;-78
2022/11/11 09:39:51;;;;;;;1.55;1.00;;;20.90;99.90;;;;;;5031711;28;20195;-77
2022/11/11 09:42:35;;;;;;;2.25;1.33;;;20.90;99.90;;;;;;5025537;28;20202;-77
2022/11/11 09:45:28;;;;;;;2.28;1.40;;;20.90;99.90;;;;;;5029203;28;20227;-78
2022/11/11 09:48:07;;;;;;;3.70;1.27;;;20.80;99.90;;;;;;5029949;28;20194;-83
2022/11/11 09:50:43;;;;;;;2.17;1.40;;;20.80;99.90;;;;;;5026631;28;20218;-81
2022/11/11 09:53:19;;;;;;;2.08;1.30;;;20.70;99.90;;;;;;5029915;28;20200;-78
2022/11/11 09:56:01;;;;;;;2.78;1.30;;;20.70;99.90;;;;;;5031875;28;20277;-83
2022/11/11 09:58:36;;;;;;;1.98;1.30;;;20.70;99.90;;;;;;5032163;28;20227;-81
2022/11/11 10:01:14;;;;;;;2.78;1.10;;;20.60;99.90;;;;;;5027443;28;20219;-79
2022/11/11 10:03:48;;;;;;;2.55;1.38;;;20.60;99.90;;;;;;5028419;28;20694;-80
2022/11/11 10:06:24;;;;;;;1.73;1.33;;;20.60;99.90;;;;;;5032502;28;20296;-81
2022/11/11 10:09:01;;;;;;;2.10;1.50;;;20.50;99.90;;;;;;5032735;28;20194;-81
2022/11/11 10:11:52;;;;;;;3.33;1.67;;;20.50;99.90;;;;;;5031156;28;20688;-82
2022/11/11 10:14:23;;;;;;;3.50;1.67;;;20.50;99.90;;;;;;5025236;28;20197;-81
2022/11/11 10:17:05;;;;;;;2.65;1.60;;;20.50;99.90;;;;;;5031817;28;20269;-82
2022/11/11 10:19:44;;;;;;;2.63;1.63;;;20.50;99.90;;;;;;5032712;28;20208;-82
2022/11/11 10:22:24;;;;;;;2.13;1.38;;;20.40;99.90;;;;;;5028298;28;20197;-77
2022/11/11 10:25:05;;;;;;;2.50;1.30;;;20.40;99.90;;;;;;5030070;28;20201;-81
2022/11/11 10:27:42;;;;;;;2.28;1.55;;;20.40;99.90;;;;;;5028002;28;20734;-82
2022/11/11 10:30:21;;;;;;;2.83;1.70;;;20.40;99.90;;;;;;5024402;28;20249;-82
2022/11/11 10:32:58;;;;;;;3.65;1.80;;;20.40;99.90;;;;;;5026814;28;20190;-77
2022/11/11 10:35:31;;;;;;;2.83;1.50;;;20.30;99.90;;;;;;5028254;28;20194;-80
2022/11/11 10:38:22;;;;;;;1.40;1.30;;;20.30;99.90;;;;;;5023887;28;20793;-83
2022/11/11 10:40:56;;;;;;;1.67;1.10;;;20.30;99.90;;;;;;5025490;28;20564;-82
2022/11/11 10:43:28;;;;;;;2.13;1.10;;;20.30;99.90;;;;;;5029173;28;20567;-84
2022/11/11 10:46:05;;;;;;;1.90;1.40;;;20.20;99.90;;;;;;5031776;28;20232;-77
2022/11/11 10:48:44;;;;;;;1.85;1.63;;;20.20;99.90;;;;;;5031313;28;20212;-82
2022/11/11 10:51:17;;;;;;;2.30;1.40;;;20.10;99.90;;;;;;5029141;28;20218;-83
2022/11/11 10:53:59;;;;;;;1.38;1.23;;;20.10;99.90;;;;;;5024496;28;20194;-83
2022/11/11 10:56:36;;;;;;;1.65;1.30;;;20.10;99.90;;;;;;5030422;28;20198;-82
2022/11/11 10:59:15;;;;;;;2.25;1.70;;;20.00;99.90;;;;;;5027678;28;20555;-84
2022/11/11 11:01:53;;;;;;;1.85;1.42;;;20.10;99.90;;;;;;5018139;28;20204;-82
2022/11/11 11:04:33;;;;;;;4.15;1.55;;;20.00;99.90;;;;;;5027605;28;20255;-83
2022/11/11 11:07:07;;;;;;;1.85;1.20;;;20.00;99.90;;;;;;5022511;28;20234;-82
2022/11/11 11:09:45;;;;;;;1.67;1.13;;;20.00;99.90;;;;;;5029264;28;20247;-81
2022/11/11 11:12:22;;;;;;;1.15;1.02;;;20.00;99.90;;;;;;5028625;28;20190;-82
2022/11/11 11:14:56;;;;;;;1.85;1.17;;;20.00;99.90;;;;;;5020203;28;20198;-82
2022/11/11 11:17:32;;;;;;;1.38;1.10;;;20.00;99.90;;;;;;5032172;28;20193;-82
2022/11/11 11:20:15;;;;;;;1.52;1.30;;;19.90;99.90;;;;;;5030651;28;20202;-84
2022/11/11 11:22:50;;;;;;;1.50;1.40;;;19.90;99.90;;;;;;5029548;28;21172;-78
2022/11/11 11:25:24;;;;;;;3.25;1.70;;;19.90;99.90;;;;;;5026854;28;20205;-78
2022/11/11 11:28:05;;;;;;;2.83;2.03;;;19.90;99.90;;;;;;5030245;28;20224;-81
2022/11/11 11:30:36;;;;;;;3.00;2.40;;;19.90;99.90;;;;;;5033078;28;20221;-81
2022/11/11 11:33:08;;;;;;;3.45;2.67;;;19.90;99.90;;;;;;5031365;28;20205;-80
2022/11/11 11:35:40;;;;;;;4.45;2.80;;;19.80;99.90;;;;;;5030141;28;20195;-78
2022/11/11 11:38:12;;;;;;;7.90;3.25;;;19.80;99.90;;;;;;5016493;28;20236;-77
2022/11/11 11:40:52;;;;;;;5.97;3.15;;;19.80;99.90;;;;;;5025681;28;20205;-84
2022/11/11 11:43:41;;;;;;;5.28;3.28;;;19.80;99.90;;;;;;5027981;28;20197;-79
2022/11/11 11:46:22;;;;;;;4.80;3.35;;;19.80;99.90;;;;;;5029179;28;20627;-80
2022/11/11 11:49:08;;;;;;;4.20;2.78;;;19.80;99.90;;;;;;5029480;28;20202;-81
2022/11/11 11:51:42;;;;;;;4.43;2.28;;;19.70;99.90;;;;;;5026859;28;20221;-81
2022/11/11 11:54:36;;;;;;;2.80;1.90;;;19.70;99.90;;;;;;5024395;28;20186;-80
2022/11/11 11:57:21;;;;;;;2.75;1.70;;;19.60;99.90;;;;;;5032795;28;20201;-81
2022/11/11 12:00:00;;;;;;;2.00;1.60;;;19.60;99.90;;;;;;5034446;28;20192;-81
2022/11/11 12:02:52;;;;;;;3.08;1.25;;;19.60;99.90;;;;;;5028063;28;20198;-79
2022/11/11 12:05:28;;;;;;;3.05;1.30;;;19.60;99.90;;;;;;5034917;28;20202;-81
2022/11/11 12:08:08;;;;;;;1.77;1.20;;;19.60;99.90;;;;;;5033457;28;20541;-78
2022/11/11 12:10:49;;;;;;;2.08;1.27;;;19.60;99.90;;;;;;5028673;28;20237;-83
2022/11/11 12:13:36;;;;;;;3.05;1.02;;;19.60;99.90;;;;;;5034864;28;20727;-79
2022/11/11 12:16:20;;;;;;;2.58;1.23;;;19.50;99.90;;;;;;5033625;28;20204;-81
2022/11/11 12:19:03;;;;;;;2.03;1.05;;;19.50;99.90;;;;;;5034643;28;20187;-80
2022/11/11 12:21:42;;;;;;;2.20;1.20;;;19.50;99.90;;;;;;5027619;28;20194;-77
2022/11/11 12:24:24;;;;;;;3.13;1.40;;;19.50;99.90;;;;;;5030059;28;20197;-82
2022/11/11 12:27:02;;;;;;;1.98;1.30;;;19.50;99.90;;;;;;5031688;28;20232;-81
2022/11/11 12:29:55;;;;;;;1.73;1.20;;;19.50;99.90;;;;;;5032445;28;20225;-84
2022/11/11 12:32:45;;;;;;;1.40;1.10;;;19.40;99.90;;;;;;5033064;28;20216;-82
2022/11/11 12:35:35;;;;;;;2.08;1.02;;;19.40;99.90;;;;;;5028825;28;20249;-81
2022/11/11 12:38:21;;;;;;;2.35;1.30;;;19.40;99.90;;;;;;5035270;28;20602;-80
2022/11/11 12:41:02;;;;;;;1.52;1.10;;;19.30;99.90;;;;;;5034149;28;20196;-80
2022/11/11 12:43:40;;;;;;;2.25;1.20;;;19.30;99.90;;;;;;5031335;28;20595;-82
2022/11/11 12:46:24;;;;;;;2.30;1.23;;;19.30;99.90;;;;;;5031016;28;20195;-78
2022/11/11 12:49:04;;;;;;;2.15;1.20;;;19.20;99.90;;;;;;5030776;28;20198;-80
2022/11/11 12:51:46;;;;;;;2.22;1.40;;;19.20;99.90;;;;;;5025871;28;20224;-82
2022/11/11 12:54:28;;;;;;;1.55;1.25;;;19.20;99.90;;;;;;5031887;28;20200;-81
2022/11/11 12:57:05;;;;;;;2.80;1.30;;;19.10;99.90;;;;;;5033573;28;20225;-82
2022/11/11 12:59:55;;;;;;;4.60;1.20;;;19.10;99.90;;;;;;5030130;28;20202;-81
2022/11/11 13:02:53;;;;;;;2.10;1.38;;;19.00;99.90;;;;;;5032001;28;20664;-82
2022/11/11 13:05:27;;;;;;;1.08;0.90;;;19.00;99.90;;;;;;5031115;28;20202;-81
2022/11/11 13:08:21;;;;;;;1.33;1.20;;;19.00;99.90;;;;;;5028030;28;20194;-81
2022/11/11 13:11:01;;;;;;;1.40;1.30;;;19.00;99.90;;;;;;5028322;28;20218;-85
2022/11/11 13:13:44;;;;;;;2.30;1.40;;;19.00;99.90;;;;;;5031482;28;20194;-83
2022/11/11 13:16:16;;;;;;;1.40;1.30;;;19.00;99.90;;;;;;5025944;28;20198;-83
2022/11/11 13:18:56;;;;;;;3.03;1.50;;;18.90;99.90;;;;;;5022205;28;20191;-82
2022/11/11 13:21:33;;;;;;;2.85;1.40;;;18.90;99.90;;;;;;5031680;28;20277;-84
2022/11/11 13:24:05;;;;;;;3.58;1.55;;;18.80;99.90;;;;;;5032621;28;20194;-82
2022/11/11 13:26:40;;;;;;;2.20;1.35;;;18.80;99.90;;;;;;5031662;28;20202;-82
2022/11/11 13:29:39;;;;;;;1.63;1.20;;;18.80;99.90;;;;;;5032259;28;20285;-84
2022/11/11 13:32:14;;;;;;;1.88;1.40;;;18.80;99.90;;;;;;5028152;28;20226;-82
2022/11/11 13:34:47;;;;;;;1.85;1.10;;;18.80;99.90;;;;;;5028439;28;20573;-82
2022/11/11 13:37:26;;;;;;;2.08;1.25;;;18.80;99.90;;;;;;5025281;28;20235;-78
2022/11/11 13:40:01;;;;;;;1.30;1.20;;;18.70;99.90;;;;;;5030062;28;20197;-78
2022/11/11 13:42:39;;;;;;;3.35;1.35;;;18.70;99.90;;;;;;5031845;28;20207;-77
2022/11/11 13:45:24;;;;;;;3.08;1.40;;;18.70;99.90;;;;;;5031788;28;20204;-78
2022/11/11 13:47:55;;;;;;;1.60;1.17;;;18.70;99.90;;;;;;5026941;28;20657;-79
2022/11/11 13:50:31;;;;;;;3.47;1.20;;;18.70;99.90;;;;;;5030080;28;20205;-76
2022/11/11 13:53:04;;;;;;;1.27;1.17;;;18.70;99.90;;;;;;5029556;28;20202;-79
2022/11/11 13:55:39;;;;;;;1.30;1.20;;;18.60;99.90;;;;;;5023883;28;20783;-77
2022/11/11 13:58:23;;;;;;;2.03;1.00;;;18.60;99.90;;;;;;5032298;28;20194;-76
2022/11/11 14:01:02;;;;;;;3.30;1.10;;;18.60;99.90;;;;;;5027377;28;20202;-80
2022/11/11 14:03:38;;;;;;;1.30;1.20;;;18.60;99.90;;;;;;5031932;28;20324;-80
2022/11/11 14:06:39;;;;;;;1.40;1.13;;;18.50;99.90;;;;;;5025931;28;20290;-78
2022/11/11 14:09:13;;;;;;;1.80;1.10;;;18.50;99.90;;;;;;5026176;28;20217;-80
2022/11/11 14:11:44;;;;;;;4.60;1.27;;;18.40;99.90;;;;;;5031514;28;20248;-77
2022/11/11 14:14:48;;;;;;;2.85;1.15;;;18.40;99.90;;;;;;5027414;28;20281;-77
2022/11/11 14:17:21;;;;;;;2.83;1.08;;;18.40;99.90;;;;;;5030236;28;20201;-77
2022/11/11 14:19:51;;;;;;;1.90;1.17;;;18.40;99.90;;;;;;5032008;28;20249;-78
2022/11/11 14:22:33;;;;;;;1.70;1.10;;;18.40;99.90;;;;;;5029462;28;20194;-76
2022/11/11 14:25:23;;;;;;;2.03;1.05;;;18.30;99.90;;;;;;5028132;28;20201;-78
2022/11/11 14:27:54;;;;;;;1.42;1.00;;;18.40;99.90;;;;;;5029459;28;20197;-80
2022/11/11 14:30:39;;;;;;;1.10;1.00;;;18.40;99.90;;;;;;5023570;28;20198;-77
2022/11/11 14:33:21;;;;;;;1.15;0.98;;;18.30;99.90;;;;;;5024329;28;20194;-77
2022/11/11 14:36:02;;;;;;;2.40;1.10;;;18.30;99.90;;;;;;5031661;28;20198;-76